Time;durP1;ratioP1;P1;durP2;ratioP2;P2;SDS_P1;SDS_P2;PMS_P1;PMS_P2;Temp;Humidity;BMP_temperature;BMP_pressure;BME280_temperature;BME280_humidity;BME280_pressure;Samples;Min_cycle;Max_cycle;Signal;HPM_P1;HPM_P2
2022/12/12 00:01:45;;;;;;;8.33;6.80;;;;;;;-1.51;100.00;98371.53;6220557;23;20204;-80
2022/12/12 00:04:12;;;;;;;10.30;6.83;;;;;;;-1.55;100.00;98365.00;6219804;23;20258;-81
2022/12/12 00:06:39;;;;;;;9.90;6.80;;;;;;;-1.41;100.00;98361.63;6220570;23;20208;-80
2022/12/12 00:09:05;;;;;;;9.83;6.70;;;;;;;-1.43;100.00;98369.69;6248476;23;20208;-82
2022/12/12 00:11:32;;;;;;;9.17;6.60;;;;;;;-1.44;100.00;98356.69;6247859;23;20244;-79
2022/12/12 00:13:59;;;;;;;8.23;6.50;;;;;;;-1.55;100.00;98368.44;6247030;23;20212;-78
2022/12/12 00:16:26;;;;;;;8.47;6.37;;;;;;;-1.48;100.00;98365.94;6246374;23;20216;-78
2022/12/12 00:18:53;;;;;;;8.43;6.70;;;;;;;-1.52;100.00;98365.47;6194268;23;20224;-79
2022/12/12 00:21:23;;;;;;;9.13;6.60;;;;;;;-1.38;100.00;98356.84;6218855;23;20236;-79
2022/12/12 00:23:50;;;;;;;7.50;6.20;;;;;;;-1.28;100.00;98368.94;6219870;23;20209;-80
2022/12/12 00:26:22;;;;;;;7.90;6.03;;;;;;;-1.36;100.00;98364.56;6219722;23;20629;-78
2022/12/12 00:28:49;;;;;;;9.23;6.60;;;;;;;-1.36;100.00;98365.38;6220306;23;20209;-79
2022/12/12 00:31:16;;;;;;;7.87;6.50;;;;;;;-1.35;100.00;98372.25;6219322;23;20213;-79
2022/12/12 00:33:47;;;;;;;7.83;6.43;;;;;;;-1.39;100.00;98378.03;6218551;23;20528;-78
2022/12/12 00:36:20;;;;;;;8.27;6.33;;;;;;;-1.33;100.00;98387.84;6219801;23;20262;-79
2022/12/12 00:38:47;;;;;;;8.03;5.77;;;;;;;-1.49;100.00;98385.31;6196509;23;20205;-78
2022/12/12 00:41:15;;;;;;;7.70;5.80;;;;;;;-1.49;100.00;98394.00;6179524;23;20212;-78
2022/12/12 00:43:41;;;;;;;7.20;5.53;;;;;;;-1.47;100.00;98399.09;6178954;23;20290;-78
2022/12/12 00:46:13;;;;;;;8.57;5.73;;;;;;;-1.47;100.00;98394.66;6203928;23;20292;-79
2022/12/12 00:48:39;;;;;;;7.43;6.10;;;;;;;-1.39;100.00;98399.03;6179072;23;20208;-78
2022/12/12 00:51:08;;;;;;;8.73;5.70;;;;;;;-1.28;100.00;98400.47;6177718;23;20299;-79
2022/12/12 00:53:36;;;;;;;5.90;4.80;;;;;;;-1.36;100.00;98406.59;6178282;23;20295;-78
2022/12/12 00:56:03;;;;;;;7.77;6.07;;;;;;;-1.54;100.00;98412.09;6152816;23;20217;-78
2022/12/12 00:58:31;;;;;;;8.07;5.67;;;;;;;-1.55;100.00;98409.66;6200760;23;20208;-79
2022/12/12 01:01:05;;;;;;;6.10;5.20;;;;;;;-1.50;100.00;98415.22;6201639;23;21107;-79
2022/12/12 01:03:33;;;;;;;6.70;5.13;;;;;;;-1.42;100.00;98418.59;6228634;23;20212;-79
2022/12/12 01:05:59;;;;;;;7.17;5.80;;;;;;;-1.36;100.00;98414.47;6203508;23;20212;-81
2022/12/12 01:08:26;;;;;;;6.70;5.60;;;;;;;-1.48;100.00;98421.91;6216522;23;20263;-79
2022/12/12 01:10:55;;;;;;;7.93;6.17;;;;;;;-1.43;100.00;98424.03;6230399;23;20244;-79
2022/12/12 01:13:22;;;;;;;6.70;5.30;;;;;;;-1.39;100.00;98423.50;6204251;23;20830;-78
2022/12/12 01:15:49;;;;;;;7.07;5.83;;;;;;;-1.44;100.00;98419.75;6179086;23;20286;-79
2022/12/12 01:18:16;;;;;;;8.33;6.27;;;;;;;-1.53;100.00;98432.13;6175586;23;20900;-78
2022/12/12 01:20:43;;;;;;;8.23;5.80;;;;;;;-1.49;100.00;98428.16;6201105;23;20217;-79
2022/12/12 01:23:10;;;;;;;7.63;5.67;;;;;;;-1.60;100.00;98411.97;6201263;23;20239;-80
2022/12/12 01:25:37;;;;;;;7.93;5.80;;;;;;;-1.58;100.00;98408.19;6176757;23;20231;-78
2022/12/12 01:28:04;;;;;;;6.80;5.40;;;;;;;-1.49;100.00;98412.41;6202252;23;20307;-79
2022/12/12 01:30:31;;;;;;;7.40;5.70;;;;;;;-1.59;100.00;98411.00;6201799;23;20216;-78
2022/12/12 01:32:58;;;;;;;6.33;5.37;;;;;;;-1.69;100.00;98400.69;6177136;23;20691;-79
2022/12/12 01:35:25;;;;;;;6.80;5.63;;;;;;;-1.77;100.00;98404.16;6176362;23;20291;-80
2022/12/12 01:37:53;;;;;;;6.83;5.47;;;;;;;-1.92;100.00;98410.31;6201518;23;20299;-79
2022/12/12 01:40:24;;;;;;;5.67;4.97;;;;;;;-1.71;100.00;98400.03;6201681;23;20232;-79
2022/12/12 01:42:51;;;;;;;7.07;5.73;;;;;;;-1.81;100.00;98392.38;6178938;23;20209;-79
2022/12/12 01:45:56;;;;;;;6.83;5.17;;;;;;;-1.70;100.00;98399.06;6204260;23;20251;-81
2022/12/12 01:48:43;;;;;;;6.20;4.87;;;;;;;-1.71;100.00;98400.03;6229608;23;20205;-78
2022/12/12 01:51:13;;;;;;;6.47;5.17;;;;;;;-1.78;100.00;98399.09;6203259;23;20217;-80
2022/12/12 01:53:40;;;;;;;7.00;5.30;;;;;;;-1.90;100.00;98403.91;6202998;23;20215;-78
2022/12/12 01:56:11;;;;;;;6.50;4.67;;;;;;;-1.84;100.00;98408.47;6201509;23;20795;-80
2022/12/12 01:58:42;;;;;;;7.40;4.93;;;;;;;-1.64;100.00;98408.88;6202441;23;20212;-79
2022/12/12 02:01:10;;;;;;;6.57;5.13;;;;;;;-1.68;100.00;98407.56;6179490;23;20235;-81
2022/12/12 02:03:37;;;;;;;6.23;5.13;;;;;;;-1.76;100.00;98402.38;6179132;23;20204;-80
2022/12/12 02:06:06;;;;;;;6.23;5.03;;;;;;;-1.92;100.00;98397.19;6203757;23;20272;-81
2022/12/12 02:08:33;;;;;;;7.03;5.30;;;;;;;-1.95;100.00;98410.63;6179436;23;20944;-81
2022/12/12 02:11:00;;;;;;;6.73;5.20;;;;;;;-2.06;100.00;98397.91;6205094;23;20303;-81
2022/12/12 02:13:28;;;;;;;7.47;5.60;;;;;;;-2.19;100.00;98406.28;6179140;23;20778;-79
2022/12/12 02:16:21;;;;;;;7.87;5.43;;;;;;;-2.13;100.00;98407.44;6204220;23;20215;-78
2022/12/12 02:18:57;;;;;;;6.73;5.63;;;;;;;-2.08;100.00;98413.00;6162443;23;20418;-79
2022/12/12 02:21:32;;;;;;;7.77;5.40;;;;;;;-2.16;100.00;98408.59;6228857;23;20216;-78
2022/12/12 02:24:04;;;;;;;6.70;5.07;;;;;;;-2.17;100.00;98412.19;6175602;23;21143;-79
2022/12/12 02:26:50;;;;;;;6.93;5.03;;;;;;;-2.03;100.00;98413.31;6201387;23;20228;-78
2022/12/12 02:29:40;;;;;;;6.37;5.20;;;;;;;-1.98;100.00;98401.31;6228870;23;20216;-79
2022/12/12 02:32:24;;;;;;;7.63;4.77;;;;;;;-1.94;100.00;98401.78;6201982;23;20247;-78
2022/12/12 02:35:19;;;;;;;6.70;4.90;;;;;;;-2.08;100.00;98405.13;6177784;23;20192;-78
2022/12/12 02:38:13;;;;;;;5.70;4.53;;;;;;;-1.93;100.00;98398.19;6204777;23;20213;-78
2022/12/12 02:41:14;;;;;;;5.33;4.37;;;;;;;-2.05;100.00;98394.31;6180450;23;20216;-80
2022/12/12 02:43:41;;;;;;;6.83;4.53;;;;;;;-1.96;100.00;98406.41;6179684;23;20212;-79
2022/12/12 02:46:13;;;;;;;5.43;4.33;;;;;;;-2.06;100.00;98396.09;6203910;23;20201;-80
2022/12/12 02:49:01;;;;;;;6.50;4.30;;;;;;;-2.02;100.00;98407.06;6180104;23;20217;-79
2022/12/12 02:51:29;;;;;;;5.93;4.10;;;;;;;-2.15;100.00;98405.00;6202215;23;20204;-81
2022/12/12 02:53:58;;;;;;;5.50;4.17;;;;;;;-2.30;100.00;98396.16;6200887;23;20213;-81
2022/12/12 02:56:41;;;;;;;5.80;4.43;;;;;;;-2.30;100.00;98407.50;6226682;23;20220;-81
2022/12/12 02:59:10;;;;;;;6.47;4.27;;;;;;;-2.32;100.00;98406.81;6151055;23;20212;-80
2022/12/12 03:01:49;;;;;;;5.40;4.50;;;;;;;-2.36;100.00;98413.41;6194713;23;20220;-82
2022/12/12 03:07:49;;;;;;;4.73;3.70;;;;;;;-2.32;100.00;98414.69;6183795;23;20753;-82
2022/12/12 03:10:28;;;;;;;5.37;4.00;;;;;;;-2.42;100.00;98421.91;6199059;23;20209;-81
2022/12/12 03:13:07;;;;;;;6.03;4.20;;;;;;;-2.48;100.00;98425.22;6172196;23;20212;-80
2022/12/12 03:15:47;;;;;;;5.33;4.10;;;;;;;-2.54;100.00;98417.19;6197512;23;20213;-78
2022/12/12 03:18:22;;;;;;;5.37;3.77;;;;;;;-2.33;100.00;98420.91;6169859;23;20189;-79
2022/12/12 03:20:58;;;;;;;5.47;3.93;;;;;;;-2.46;100.00;98422.41;6147174;23;20221;-79
2022/12/12 03:23:28;;;;;;;4.60;3.67;;;;;;;-2.60;100.00;98416.06;6171229;23;20240;-77
2022/12/12 03:26:02;;;;;;;5.37;4.00;;;;;;;-2.69;100.00;98423.13;6170239;23;20224;-79
2022/12/12 03:28:38;;;;;;;5.20;3.90;;;;;;;-2.57;100.00;98426.22;6196822;23;20213;-79
2022/12/12 03:31:08;;;;;;;4.80;3.90;;;;;;;-2.59;100.00;98424.75;6169679;23;20213;-79
2022/12/12 03:33:52;;;;;;;4.97;3.87;;;;;;;-2.47;100.00;98420.81;6145191;23;20213;-79
2022/12/12 03:36:28;;;;;;;5.70;3.90;;;;;;;-2.58;100.00;98431.63;6170161;23;20213;-81
2022/12/12 03:38:59;;;;;;;5.70;4.00;;;;;;;-2.50;100.00;98435.06;6148443;23;20294;-81
2022/12/12 03:41:31;;;;;;;4.93;3.83;;;;;;;-2.57;100.00;98435.91;6173249;23;20273;-81
2022/12/12 03:44:28;;;;;;;6.07;4.00;;;;;;;-2.59;100.00;98440.47;6172531;23;20224;-81
2022/12/12 03:47:07;;;;;;;5.30;4.00;;;;;;;-2.68;100.00;98431.81;6137900;23;20213;-81
2022/12/12 03:49:48;;;;;;;5.40;4.30;;;;;;;-2.72;100.00;98439.19;6171367;23;20208;-81
2022/12/12 03:52:41;;;;;;;5.60;4.27;;;;;;;-2.57;100.00;98438.53;6171739;23;20217;-81
2022/12/12 03:55:15;;;;;;;6.47;4.50;;;;;;;-2.39;100.00;98442.59;6147476;23;20216;-81
2022/12/12 03:57:50;;;;;;;6.57;4.47;;;;;;;-2.50;100.00;98440.31;6197043;23;20213;-81
2022/12/12 04:00:17;;;;;;;7.23;4.93;;;;;;;-2.43;100.00;98438.66;6200139;23;20277;-81
2022/12/12 04:03:32;;;;;;;5.63;4.57;;;;;;;-2.38;100.00;98443.41;6201131;23;20213;-81
2022/12/12 04:06:26;;;;;;;6.03;4.47;;;;;;;-2.30;100.00;98454.72;6214721;23;20235;-82
2022/12/12 04:15:50;;;;;;;5.83;4.47;;;;;;;-2.21;100.00;98447.63;6107547;23;20207;-81
2022/12/12 04:18:26;;;;;;;5.57;4.33;;;;;;;-2.33;100.00;98444.53;6105968;23;20199;-81
2022/12/12 04:24:23;;;;;;;5.07;4.10;;;;;;;-2.17;100.00;98456.81;6228683;23;20236;-79
2022/12/12 04:27:05;;;;;;;6.70;4.93;;;;;;;-1.99;100.00;98453.97;6227847;23;20505;-79
2022/12/12 04:29:56;;;;;;;6.87;4.80;;;;;;;-2.19;100.00;98450.09;6177777;23;20212;-79
2022/12/12 04:32:27;;;;;;;7.10;4.87;;;;;;;-2.08;100.00;98452.34;6228598;23;20681;-79
2022/12/12 04:35:06;;;;;;;7.60;5.60;;;;;;;-2.02;100.00;98446.44;6175546;23;20736;-80
2022/12/12 04:37:49;;;;;;;8.03;5.30;;;;;;;-2.10;100.00;98436.75;6227688;23;20250;-79
2022/12/12 04:40:21;;;;;;;6.90;5.43;;;;;;;-2.10;100.00;98446.47;6176493;23;20917;-79
2022/12/12 04:43:09;;;;;;;9.57;5.00;;;;;;;-2.08;100.00;98439.22;6203326;23;20235;-80
2022/12/12 04:45:40;;;;;;;6.50;5.13;;;;;;;-2.16;100.00;98444.50;6201803;23;20209;-78
2022/12/12 04:48:08;;;;;;;7.13;5.13;;;;;;;-2.08;100.00;98449.72;6200319;23;20273;-80
2022/12/12 04:50:36;;;;;;;6.17;5.13;;;;;;;-2.17;100.00;98459.44;6200800;23;20212;-80
2022/12/12 04:53:07;;;;;;;6.63;5.27;;;;;;;-2.12;100.00;98462.38;6226860;23;20220;-79
2022/12/12 04:55:43;;;;;;;7.73;5.53;;;;;;;-2.36;100.00;98451.91;6200523;23;20267;-79
2022/12/12 04:58:10;;;;;;;6.57;5.07;;;;;;;-2.47;100.00;98449.66;6224355;23;20212;-78
2022/12/12 05:01:06;;;;;;;6.17;5.20;;;;;;;-2.49;100.00;98451.63;6225535;23;20292;-79
2022/12/12 05:03:45;;;;;;;6.77;5.23;;;;;;;-2.48;100.00;98455.88;6198605;23;20300;-78
2022/12/12 05:06:14;;;;;;;6.90;5.00;;;;;;;-2.44;100.00;98452.75;6173955;23;20234;-78
2022/12/12 05:08:47;;;;;;;8.23;5.03;;;;;;;-2.46;100.00;98459.16;6176401;23;20232;-78
2022/12/12 05:11:17;;;;;;;7.57;4.90;;;;;;;-2.43;100.00;98456.22;6175889;23;20258;-79
2022/12/12 05:13:44;;;;;;;6.70;5.07;;;;;;;-2.34;100.00;98458.66;6201718;23;20205;-79
2022/12/12 05:16:33;;;;;;;6.67;5.00;;;;;;;-2.33;100.00;98457.66;6198951;23;20224;-80
2022/12/12 05:19:00;;;;;;;5.73;4.70;;;;;;;-2.43;100.00;98456.22;6227908;23;20208;-82
2022/12/12 05:21:27;;;;;;;6.83;5.20;;;;;;;-2.54;100.00;98456.53;6226797;23;20236;-79
2022/12/12 05:23:54;;;;;;;6.23;4.87;;;;;;;-2.47;100.00;98449.66;6226346;23;20220;-78
2022/12/12 05:26:24;;;;;;;6.53;5.10;;;;;;;-2.45;100.00;98458.16;6175140;23;20287;-79
2022/12/12 05:28:52;;;;;;;7.30;5.33;;;;;;;-2.37;100.00;98458.97;6226806;23;20908;-78
2022/12/12 05:31:18;;;;;;;7.00;5.20;;;;;;;-2.23;100.00;98465.34;6149083;23;20831;-79
2022/12/12 05:33:46;;;;;;;6.37;4.70;;;;;;;-2.30;100.00;98473.06;6226567;23;20217;-79
2022/12/12 05:36:12;;;;;;;6.33;4.70;;;;;;;-2.28;100.00;98470.25;6227253;23;20201;-79
2022/12/12 05:38:40;;;;;;;5.67;4.70;;;;;;;-2.13;100.00;98471.22;6201896;23;20209;-78
2022/12/12 05:41:07;;;;;;;5.93;4.57;;;;;;;-2.08;100.00;98470.72;6201861;23;20212;-78
2022/12/12 05:43:34;;;;;;;6.20;4.07;;;;;;;-2.09;100.00;98467.28;6227697;23;20298;-79
2022/12/12 05:46:01;;;;;;;6.40;4.37;;;;;;;-2.06;100.00;98468.75;6177194;23;20208;-79
2022/12/12 05:48:27;;;;;;;6.03;3.93;;;;;;;-2.04;100.00;98472.84;6201156;23;20212;-79
2022/12/12 05:50:54;;;;;;;5.60;4.30;;;;;;;-2.14;100.00;98481.88;6197124;23;20209;-79
2022/12/12 05:53:21;;;;;;;7.17;4.30;;;;;;;-2.00;100.00;98465.44;6175996;23;20217;-79
2022/12/12 05:55:50;;;;;;;5.60;4.53;;;;;;;-1.91;100.00;98467.06;6200926;23;20236;-78
2022/12/12 05:58:18;;;;;;;6.33;4.47;;;;;;;-1.91;100.00;98469.69;6206447;23;20238;-78
2022/12/12 06:00:48;;;;;;;6.43;4.60;;;;;;;-1.96;100.00;98472.03;6203510;23;20211;-79
2022/12/12 06:03:16;;;;;;;5.83;4.40;;;;;;;-1.97;100.00;98471.22;6226464;23;20208;-77
2022/12/12 06:05:42;;;;;;;5.43;4.30;;;;;;;-1.81;100.00;98480.81;6200281;23;20216;-78
2022/12/12 06:08:09;;;;;;;5.47;4.20;;;;;;;-1.93;100.00;98485.63;6228715;23;20283;-80
2022/12/12 06:10:36;;;;;;;5.33;4.30;;;;;;;-1.95;100.00;98479.72;6228500;23;20232;-79
2022/12/12 06:13:03;;;;;;;6.40;4.40;;;;;;;-2.03;100.00;98478.91;6201783;23;20267;-78
2022/12/12 06:15:29;;;;;;;6.83;4.47;;;;;;;-1.91;100.00;98480.19;6226644;23;20224;-78
2022/12/12 06:17:57;;;;;;;5.23;4.20;;;;;;;-1.81;100.00;98473.75;6175513;23;20227;-78
2022/12/12 06:20:24;;;;;;;5.87;4.00;;;;;;;-1.76;100.00;98483.75;6175101;23;20212;-78
2022/12/12 06:22:50;;;;;;;5.93;4.43;;;;;;;-1.90;100.00;98484.47;6196845;23;20240;-79
2022/12/12 06:25:19;;;;;;;6.20;4.67;;;;;;;-1.90;100.00;98482.66;6224984;23;20286;-80
2022/12/12 06:27:46;;;;;;;6.30;4.73;;;;;;;-2.02;100.00;98484.00;6226138;23;20288;-79
2022/12/12 06:30:13;;;;;;;5.47;4.43;;;;;;;-1.96;100.00;98490.41;6224165;23;20601;-78
2022/12/12 06:32:40;;;;;;;7.20;4.53;;;;;;;-1.82;100.00;98489.72;6197747;23;20208;-79
2022/12/12 06:35:07;;;;;;;5.37;4.20;;;;;;;-1.84;100.00;98494.28;6225016;23;20219;-78
2022/12/12 06:37:35;;;;;;;5.57;4.13;;;;;;;-1.74;100.00;98499.34;6225740;23;20319;-78
2022/12/12 06:40:02;;;;;;;6.53;5.07;;;;;;;-1.68;100.00;98496.06;6225584;22;20236;-79
2022/12/12 06:42:29;;;;;;;6.10;4.33;;;;;;;-1.60;100.00;98507.34;6228264;23;20219;-80
2022/12/12 06:44:56;;;;;;;6.77;5.23;;;;;;;-1.63;100.00;98514.75;6227444;23;20811;-78
2022/12/12 06:47:23;;;;;;;7.33;5.37;;;;;;;-1.69;100.00;98503.13;6199916;23;20218;-78
2022/12/12 06:49:49;;;;;;;6.37;5.10;;;;;;;-1.55;100.00;98515.53;6200583;23;20256;-78
2022/12/12 06:52:16;;;;;;;7.03;5.23;;;;;;;-1.48;100.00;98510.41;6198457;23;20282;-80
2022/12/12 06:54:43;;;;;;;6.53;4.90;;;;;;;-1.53;100.00;98517.97;6225515;23;20606;-78
2022/12/12 06:57:10;;;;;;;6.27;4.83;;;;;;;-1.62;100.00;98514.56;6175412;23;20956;-80
2022/12/12 06:59:36;;;;;;;7.63;4.93;;;;;;;-1.64;100.00;98521.81;6200089;23;20331;-78
2022/12/12 07:02:03;;;;;;;5.93;5.30;;;;;;;-1.55;100.00;98525.22;6224922;23;20205;-81
2022/12/12 07:04:30;;;;;;;5.93;4.90;;;;;;;-1.52;100.00;98528.34;6198721;23;20291;-77
2022/12/12 07:06:57;;;;;;;6.60;4.90;;;;;;;-1.38;100.00;98532.06;6224121;23;20205;-78
2022/12/12 07:09:24;;;;;;;6.70;5.10;;;;;;;-1.54;100.00;98532.91;6200148;23;20208;-81
2022/12/12 07:11:50;;;;;;;6.77;5.03;;;;;;;-1.57;100.00;98533.28;6199636;23;20320;-79
2022/12/12 07:14:17;;;;;;;8.67;5.37;;;;;;;-1.60;100.00;98538.88;6198113;23;20237;-78
2022/12/12 07:16:44;;;;;;;6.33;4.77;;;;;;;-1.47;100.00;98543.59;6224936;23;20299;-79
2022/12/12 07:19:10;;;;;;;7.00;5.00;;;;;;;-1.34;100.00;98542.06;6224234;23;20208;-78
2022/12/12 07:21:37;;;;;;;7.80;5.17;;;;;;;-1.46;100.00;98537.34;6140017;23;20271;-78
2022/12/12 07:24:04;;;;;;;7.23;5.20;;;;;;;-1.45;100.00;98537.19;6219114;23;20213;-79
2022/12/12 07:26:31;;;;;;;7.13;5.60;;;;;;;-1.31;100.00;98542.72;6172526;23;20247;-79
2022/12/12 07:28:57;;;;;;;6.57;5.17;;;;;;;-1.25;100.00;98534.13;6197716;23;20263;-78
2022/12/12 07:31:25;;;;;;;7.70;5.57;;;;;;;-1.12;100.00;98540.47;6196618;23;20247;-79
2022/12/12 07:33:53;;;;;;;7.77;5.53;;;;;;;-1.09;100.00;98541.94;6173502;23;20216;-79
2022/12/12 07:36:19;;;;;;;6.77;5.00;;;;;;;-1.11;100.00;98546.53;6198516;23;20253;-79
2022/12/12 07:38:46;;;;;;;7.97;5.63;;;;;;;-1.19;100.00;98546.59;6174246;23;20697;-80
2022/12/12 07:41:15;;;;;;;7.83;5.63;;;;;;;-1.30;100.00;98547.78;6199905;23;20211;-80
2022/12/12 07:43:46;;;;;;;8.63;6.27;;;;;;;-1.22;100.00;98549.56;6200301;23;20208;-81
2022/12/12 07:46:16;;;;;;;7.90;5.73;;;;;;;-1.21;100.00;98544.13;6198594;23;20216;-78
2022/12/12 07:48:43;;;;;;;6.67;5.50;;;;;;;-1.23;100.00;98545.31;6224566;23;20215;-79
2022/12/12 07:51:11;;;;;;;6.77;5.80;;;;;;;-1.11;100.00;98552.63;6169188;23;20263;-78
2022/12/12 07:53:38;;;;;;;7.07;5.57;;;;;;;-1.10;100.00;98549.00;6212443;23;20311;-79
2022/12/12 07:56:08;;;;;;;7.90;6.00;;;;;;;-1.04;100.00;98555.41;6223175;23;20291;-79
2022/12/12 07:58:35;;;;;;;7.67;5.90;;;;;;;-0.97;100.00;98561.59;6172045;23;20212;-79
2022/12/12 08:01:19;;;;;;;7.10;5.93;;;;;;;-1.03;100.00;98564.94;6222526;23;20218;-79
2022/12/12 08:03:47;;;;;;;7.00;5.13;;;;;;;-0.97;100.00;98572.94;6190303;23;20208;-78
2022/12/12 08:06:17;;;;;;;7.30;6.00;;;;;;;-1.08;100.00;98575.97;6214319;23;20215;-78
2022/12/12 08:08:44;;;;;;;8.77;6.30;;;;;;;-1.05;100.00;98580.03;6189490;23;20236;-77
2022/12/12 08:11:14;;;;;;;9.03;6.40;;;;;;;-1.13;100.00;98583.53;6189040;23;20208;-78
2022/12/12 08:13:41;;;;;;;7.97;5.67;;;;;;;-1.07;100.00;98588.09;6187816;23;20611;-78
2022/12/12 08:16:13;;;;;;;7.37;5.83;;;;;;;-1.15;100.00;98580.25;6213879;23;20212;-77
2022/12/12 08:18:40;;;;;;;8.00;5.97;;;;;;;-1.17;100.00;98591.94;6187686;23;21145;-78
2022/12/12 08:21:08;;;;;;;7.10;5.90;;;;;;;-1.13;100.00;98594.06;6214225;23;20208;-78
2022/12/12 08:23:35;;;;;;;8.13;5.80;;;;;;;-1.01;100.00;98605.81;6188221;23;21120;-78
2022/12/12 08:26:07;;;;;;;9.50;6.27;;;;;;;-1.06;100.00;98604.69;6187502;23;20299;-78
2022/12/12 08:28:34;;;;;;;8.00;6.10;;;;;;;-1.02;100.00;98606.81;6214320;23;20220;-78
2022/12/12 08:31:01;;;;;;;8.67;5.97;;;;;;;-0.77;100.00;98607.53;6214957;23;20246;-80
2022/12/12 08:33:29;;;;;;;7.27;5.60;;;;;;;-0.85;100.00;98619.91;6215841;23;20359;-82
2022/12/12 08:35:55;;;;;;;7.50;5.93;;;;;;;-0.88;100.00;98616.59;6191592;23;20316;-80
2022/12/12 08:38:22;;;;;;;8.00;6.10;;;;;;;-0.82;100.00;98614.28;6170501;23;20305;-80
2022/12/12 08:40:49;;;;;;;8.10;6.07;;;;;;;-0.77;100.00;98620.66;6148832;23;20235;-80
2022/12/12 08:43:16;;;;;;;10.33;6.27;;;;;;;-0.72;100.00;98614.88;6190905;23;20324;-80
2022/12/12 08:45:42;;;;;;;8.50;5.30;;;;;;;-0.61;100.00;98623.22;6218237;23;20720;-80
2022/12/12 08:48:10;;;;;;;7.87;5.90;;;;;;;-0.53;100.00;98627.59;6173715;23;20745;-80
2022/12/12 08:50:39;;;;;;;8.10;5.90;;;;;;;-0.61;100.00;98633.75;6172448;23;20240;-82
2022/12/12 08:53:07;;;;;;;9.60;6.60;;;;;;;-0.57;100.00;98624.50;6170544;23;20234;-81
2022/12/12 08:55:34;;;;;;;8.50;5.73;;;;;;;-0.50;100.00;98635.97;6192945;23;20223;-80
2022/12/12 08:58:01;;;;;;;9.20;6.47;;;;;;;-0.43;100.00;98624.75;6152627;23;1237219;-81
2022/12/12 09:00:28;;;;;;;9.60;6.17;;;;;;;-0.32;100.00;98634.88;6194156;23;20212;-81
2022/12/12 09:02:55;;;;;;;8.63;6.67;;;;;;;-0.36;100.00;98642.31;6185684;23;20236;-80
2022/12/12 09:05:23;;;;;;;8.13;6.27;;;;;;;-0.35;100.00;98630.78;6211573;23;20240;-80
2022/12/12 09:07:50;;;;;;;8.77;6.20;;;;;;;-0.21;100.00;98637.94;6192827;23;20212;-79
2022/12/12 09:10:18;;;;;;;7.03;5.57;;;;;;;-0.17;100.00;98635.75;6173383;23;20635;-81
2022/12/12 09:12:46;;;;;;;8.67;6.27;;;;;;;-0.01;100.00;98636.47;6226534;23;20219;-83
2022/12/12 09:15:24;;;;;;;7.20;5.60;;;;;;;0.10;100.00;98635.22;6198699;23;20201;-79
2022/12/12 09:17:51;;;;;;;7.00;5.37;;;;;;;0.14;98.18;98640.97;6231364;23;20223;-79
2022/12/12 09:20:18;;;;;;;7.40;5.77;;;;;;;0.16;98.98;98642.41;6151677;23;20229;-79
2022/12/12 09:22:44;;;;;;;7.20;5.40;;;;;;;-0.04;99.41;98644.72;6211561;23;20893;-79
2022/12/12 09:25:11;;;;;;;5.97;4.67;;;;;;;0.07;97.73;98632.13;6200632;23;20221;-78
2022/12/12 09:27:38;;;;;;;7.07;5.23;;;;;;;-0.01;95.70;98641.75;6225761;23;20220;-78
2022/12/12 09:30:05;;;;;;;9.43;5.83;;;;;;;0.07;97.30;98637.41;6236174;23;20231;-79
2022/12/12 09:32:32;;;;;;;6.53;4.80;;;;;;;0.10;96.29;98640.47;6153507;23;20209;-81
2022/12/12 09:34:59;;;;;;;7.47;5.57;;;;;;;-0.03;97.23;98637.63;6176856;23;20472;-79
2022/12/12 09:37:27;;;;;;;7.63;5.60;;;;;;;-0.06;97.38;98643.25;6229160;23;20209;-80
2022/12/12 09:39:53;;;;;;;7.50;5.30;;;;;;;0.19;97.75;98639.41;6156452;23;20197;-80
2022/12/12 09:42:26;;;;;;;8.47;5.80;;;;;;;0.08;96.91;98645.13;6224587;23;20216;-80
2022/12/12 09:44:56;;;;;;;9.20;6.23;;;;;;;0.11;98.10;98650.03;6224851;23;20211;-80
2022/12/12 09:47:34;;;;;;;7.80;5.63;;;;;;;0.15;98.01;98647.84;6254161;23;20200;-79
2022/12/12 09:50:07;;;;;;;8.40;6.33;;;;;;;0.32;97.47;98652.00;6226020;23;20687;-79
2022/12/12 09:52:35;;;;;;;7.97;5.83;;;;;;;0.58;97.64;98644.50;6200840;23;20209;-80
2022/12/12 09:55:31;;;;;;;7.60;6.10;;;;;;;0.76;97.65;98650.25;6224830;23;20212;-80
2022/12/12 09:58:01;;;;;;;7.93;6.50;;;;;;;1.06;97.82;98647.63;6160104;23;20232;-81
2022/12/12 10:00:29;;;;;;;8.40;6.40;;;;;;;1.25;94.96;98645.25;6248794;23;20225;-81
2022/12/12 10:03:27;;;;;;;9.00;6.10;;;;;;;1.22;94.55;98647.41;6203922;23;20247;-79
2022/12/12 10:06:02;;;;;;;7.13;5.30;;;;;;;1.15;92.47;98628.06;6250708;23;20262;-79
2022/12/12 10:09:07;;;;;;;8.57;5.10;;;;;;;1.13;92.48;98641.41;6223773;23;20200;-78
2022/12/12 10:11:53;;;;;;;6.63;5.53;;;;;;;0.98;91.33;98629.25;6219149;23;20281;-78
2022/12/12 10:14:33;;;;;;;6.47;5.13;;;;;;;1.10;92.50;98635.69;6222185;23;20209;-79
2022/12/12 10:17:02;;;;;;;8.47;5.50;;;;;;;0.89;90.54;98631.97;6220321;23;20192;-79
2022/12/12 10:19:31;;;;;;;6.83;5.43;;;;;;;0.83;91.70;98638.00;6221049;23;20291;-80
2022/12/12 10:22:12;;;;;;;6.90;5.53;;;;;;;0.61;91.37;98638.88;6201097;23;20207;-80
2022/12/12 10:24:46;;;;;;;6.87;5.07;;;;;;;0.49;91.05;98636.84;6197930;23;20205;-78
2022/12/12 10:27:13;;;;;;;5.60;4.73;;;;;;;0.59;91.39;98637.44;6245661;23;20195;-78
2022/12/12 10:29:45;;;;;;;7.27;5.07;;;;;;;0.60;91.25;98649.63;6218655;23;20204;-79
2022/12/12 10:32:35;;;;;;;6.70;5.00;;;;;;;0.42;89.85;98639.41;6244351;23;20228;-79
2022/12/12 10:35:16;;;;;;;7.30;5.00;;;;;;;0.41;90.66;98643.84;6244875;23;20213;-79
2022/12/12 10:38:05;;;;;;;6.23;4.70;;;;;;;0.43;90.68;98641.03;6220413;23;20224;-79
2022/12/12 10:40:54;;;;;;;7.80;4.93;;;;;;;0.47;90.56;98647.56;6234919;22;20601;-79
2022/12/12 10:43:35;;;;;;;6.90;5.13;;;;;;;0.37;92.50;98637.28;6198953;23;20220;-80
2022/12/12 10:46:14;;;;;;;8.17;5.03;;;;;;;0.61;90.70;98635.41;6199366;23;20290;-79
2022/12/12 10:48:41;;;;;;;7.40;5.47;;;;;;;0.37;91.11;98633.84;6176565;23;20752;-78
2022/12/12 10:51:10;;;;;;;6.53;5.30;;;;;;;0.33;90.97;98633.38;6150307;23;20212;-79
2022/12/12 10:53:39;;;;;;;6.23;4.57;;;;;;;0.38;90.58;98638.94;6201885;23;20262;-79
2022/12/12 10:56:12;;;;;;;9.33;5.37;;;;;;;0.57;91.69;98640.22;6200527;23;20881;-80
2022/12/12 10:58:43;;;;;;;5.67;4.43;;;;;;;0.65;91.96;98644.63;6176367;23;20273;-80
2022/12/12 11:01:23;;;;;;;6.27;4.77;;;;;;;0.42;92.04;98640.19;6178717;23;20209;-80
2022/12/12 11:04:13;;;;;;;7.50;5.03;;;;;;;0.62;92.18;98634.41;6203688;23;20213;-79
2022/12/12 11:06:46;;;;;;;6.67;5.23;;;;;;;0.77;92.52;98637.88;6185854;23;20204;-80
2022/12/12 11:09:33;;;;;;;7.53;5.33;;;;;;;0.85;92.30;98643.06;6197908;23;20270;-79
2022/12/12 11:12:09;;;;;;;7.97;5.30;;;;;;;0.89;92.55;98636.44;6249259;23;20200;-80
2022/12/12 11:14:45;;;;;;;7.63;5.20;;;;;;;0.81;94.03;98641.78;6196339;23;20521;-79
2022/12/12 11:17:29;;;;;;;7.80;5.10;;;;;;;0.83;93.36;98634.53;6195342;23;20216;-79
2022/12/12 11:19:58;;;;;;;7.30;5.10;;;;;;;0.74;93.72;98639.09;6246721;23;20653;-79
2022/12/12 11:22:25;;;;;;;7.17;5.33;;;;;;;0.65;92.84;98642.81;6195830;23;20232;-80
2022/12/12 11:24:52;;;;;;;8.87;6.00;;;;;;;0.59;93.43;98640.88;6221762;23;20215;-79
2022/12/12 11:27:45;;;;;;;8.80;5.60;;;;;;;0.54;93.69;98639.78;6221892;23;20205;-79
2022/12/12 11:30:27;;;;;;;7.50;5.33;;;;;;;0.34;94.11;98640.28;6217830;23;20208;-80
2022/12/12 11:32:55;;;;;;;8.10;5.60;;;;;;;0.21;95.24;98645.34;6197028;23;20216;-79
2022/12/12 11:35:41;;;;;;;8.57;5.97;;;;;;;0.16;95.63;98639.78;6222922;23;20669;-79
2022/12/12 11:38:24;;;;;;;6.90;5.07;;;;;;;0.16;97.14;98631.06;6222108;23;20236;-79
2022/12/12 11:41:01;;;;;;;9.70;6.10;;;;;;;0.35;95.73;98630.56;6221247;23;20212;-80
2022/12/12 11:43:37;;;;;;;7.73;5.70;;;;;;;0.42;95.96;98621.75;6221053;23;20212;-79
2022/12/12 11:46:13;;;;;;;7.13;5.60;;;;;;;0.30;95.45;98620.56;6220748;23;20205;-80
2022/12/12 11:48:43;;;;;;;8.43;5.57;;;;;;;0.32;94.59;98623.03;6247706;23;20200;-79
2022/12/12 11:51:10;;;;;;;7.53;5.10;;;;;;;0.14;92.87;98618.06;6249220;23;20582;-79
2022/12/12 11:53:39;;;;;;;7.53;4.63;;;;;;;0.07;93.08;98617.16;6221772;23;20207;-79
2022/12/12 11:56:23;;;;;;;8.57;5.33;;;;;;;0.15;93.99;98611.81;6221533;23;20722;-80
2022/12/12 11:58:56;;;;;;;6.83;4.63;;;;;;;0.21;92.08;98610.28;6248548;23;20200;-79
2022/12/12 12:02:10;;;;;;;8.07;5.77;;;;;;;0.19;94.63;98601.72;6199508;23;20201;-79
2022/12/12 12:05:06;;;;;;;7.00;5.37;;;;;;;0.22;92.45;98612.75;6208278;23;20254;-80
2022/12/12 12:07:50;;;;;;;8.03;5.20;;;;;;;0.23;93.16;98626.72;6225828;23;20200;-79